Time;durP1;ratioP1;P1;durP2;ratioP2;P2;SDS_P1;SDS_P2;PMS_P1;PMS_P2;Temp;Humidity;BMP_temperature;BMP_pressure;BME280_temperature;BME280_humidity;BME280_pressure;Samples;Min_cycle;Max_cycle;Signal;HPM_P1;HPM_P2
2024/03/24 00:00:32;;;;;;;11.15;1.75;;;5.40;99.90;;;;;;5008147;28;20503;-71
2024/03/24 00:02:58;;;;;;;1.35;0.70;;;5.50;99.90;;;;;;5008397;28;20038;-71
2024/03/24 00:05:23;;;;;;;0.65;0.25;;;5.50;99.90;;;;;;4993130;28;20034;-71
2024/03/24 00:07:49;;;;;;;2.58;0.70;;;5.40;99.90;;;;;;4993881;28;20026;-72
2024/03/24 00:10:15;;;;;;;5.07;0.90;;;5.40;99.90;;;;;;4993157;28;20089;-71
2024/03/24 00:12:41;;;;;;;0.90;0.63;;;5.40;99.90;;;;;;4993267;28;20062;-70
2024/03/24 00:15:07;;;;;;;0.93;0.45;;;5.50;99.90;;;;;;5007493;28;20037;-71
2024/03/24 00:17:32;;;;;;;0.82;0.55;;;5.50;99.90;;;;;;5008122;28;20045;-71
2024/03/24 00:19:58;;;;;;;2.22;1.67;;;5.50;99.90;;;;;;4993384;28;20042;-71
2024/03/24 00:22:24;;;;;;;5.00;0.80;;;5.40;99.90;;;;;;5007572;28;20026;-71
2024/03/24 00:24:49;;;;;;;0.98;0.73;;;5.50;99.90;;;;;;5008224;28;20042;-71
2024/03/24 00:27:16;;;;;;;1.38;0.65;;;5.50;99.90;;;;;;5006922;28;20089;-71
2024/03/24 00:29:41;;;;;;;4.97;0.95;;;5.40;99.90;;;;;;5008498;28;20077;-72
2024/03/24 00:32:08;;;;;;;0.80;0.45;;;5.30;99.90;;;;;;5007634;28;20058;-72
2024/03/24 00:34:34;;;;;;;1.45;0.80;;;5.20;99.90;;;;;;4991763;28;20042;-73
2024/03/24 00:36:59;;;;;;;1.30;0.63;;;5.10;99.90;;;;;;4991642;28;20034;-74
2024/03/24 00:39:25;;;;;;;0.63;0.40;;;5.00;99.90;;;;;;4993010;28;20030;-73
2024/03/24 00:41:51;;;;;;;0.88;0.50;;;4.90;99.90;;;;;;5007683;28;20030;-73
2024/03/24 00:44:17;;;;;;;1.08;0.77;;;4.90;99.90;;;;;;4992928;28;20045;-73
2024/03/24 00:46:42;;;;;;;0.95;0.68;;;4.70;99.90;;;;;;4992924;28;20034;-72
2024/03/24 00:49:08;;;;;;;3.67;1.05;;;4.60;99.90;;;;;;4993196;28;20034;-73
2024/03/24 00:51:34;;;;;;;1.23;0.52;;;4.70;99.90;;;;;;4992215;28;20026;-73
2024/03/24 00:53:59;;;;;;;0.85;0.68;;;4.60;99.90;;;;;;4992992;28;20081;-73
2024/03/24 00:56:25;;;;;;;1.95;0.55;;;4.60;99.90;;;;;;5006842;28;20049;-73
2024/03/24 00:58:51;;;;;;;1.58;0.93;;;4.70;99.90;;;;;;5008164;28;20117;-73
2024/03/24 01:01:16;;;;;;;1.27;0.88;;;4.70;99.90;;;;;;4992602;28;20050;-73
2024/03/24 01:03:44;;;;;;;1.80;0.80;;;4.70;99.90;;;;;;4991797;28;20037;-72
2024/03/24 01:06:09;;;;;;;0.93;0.57;;;4.70;99.90;;;;;;5006526;28;20053;-73
2024/03/24 01:08:35;;;;;;;0.90;0.70;;;4.70;99.90;;;;;;4992589;28;20038;-73
2024/03/24 01:11:05;;;;;;;0.75;0.50;;;4.70;99.90;;;;;;4992057;28;20576;-72
2024/03/24 01:13:31;;;;;;;1.50;0.77;;;4.80;99.90;;;;;;5007322;28;20030;-73
2024/03/24 01:15:56;;;;;;;1.30;0.90;;;4.80;99.90;;;;;;5006223;28;20065;-72
2024/03/24 01:18:22;;;;;;;0.82;0.70;;;4.80;99.90;;;;;;5007903;28;20030;-73
2024/03/24 01:20:48;;;;;;;1.92;0.95;;;4.90;99.90;;;;;;5008092;28;20038;-72
2024/03/24 01:23:13;;;;;;;1.92;0.68;;;4.80;99.90;;;;;;4990788;28;20037;-73
2024/03/24 01:25:39;;;;;;;1.25;0.73;;;4.80;99.90;;;;;;4991140;28;20550;-73
2024/03/24 01:28:05;;;;;;;3.17;1.25;;;4.90;99.90;;;;;;4992410;28;20027;-72
2024/03/24 01:30:31;;;;;;;0.75;0.50;;;4.90;99.90;;;;;;4989775;28;20376;-72
2024/03/24 01:32:56;;;;;;;2.13;1.00;;;4.90;99.90;;;;;;4991813;28;20026;-73
2024/03/24 01:35:22;;;;;;;1.38;0.80;;;4.90;99.90;;;;;;5007135;28;20089;-72
2024/03/24 01:37:48;;;;;;;3.03;0.95;;;4.90;99.90;;;;;;4991034;28;20030;-73
2024/03/24 01:40:13;;;;;;;1.65;0.93;;;5.00;99.90;;;;;;5006685;28;20022;-72
2024/03/24 01:42:39;;;;;;;1.63;0.65;;;5.00;99.90;;;;;;5006901;28;20479;-72
2024/03/24 01:45:06;;;;;;;5.57;1.30;;;5.00;99.90;;;;;;5005583;28;20042;-72
2024/03/24 01:47:34;;;;;;;0.95;0.57;;;4.90;99.90;;;;;;5006662;28;20100;-73
2024/03/24 01:50:00;;;;;;;1.13;0.60;;;5.00;99.90;;;;;;5007191;28;20034;-73
2024/03/24 01:52:27;;;;;;;0.85;0.63;;;5.00;99.90;;;;;;4991453;28;20053;-73
2024/03/24 01:54:53;;;;;;;1.33;0.98;;;5.00;99.90;;;;;;5006748;28;20023;-73
2024/03/24 01:57:19;;;;;;;1.20;0.63;;;5.10;99.90;;;;;;4989619;28;20038;-75
2024/03/24 01:59:45;;;;;;;3.47;1.20;;;5.00;99.90;;;;;;5007069;28;20428;-73
2024/03/24 02:02:11;;;;;;;3.95;1.33;;;5.00;99.90;;;;;;5006084;28;20057;-74
2024/03/24 02:04:49;;;;;;;1.05;0.40;;;5.00;99.90;;;;;;4989490;28;20035;-73
2024/03/24 02:07:15;;;;;;;0.40;0.40;;;5.00;99.90;;;;;;4996734;28;20038;-73
2024/03/24 02:09:42;;;;;;;0.95;0.35;;;5.00;99.90;;;;;;4991677;28;20085;-73
2024/03/24 02:12:08;;;;;;;1.75;0.80;;;5.00;99.90;;;;;;5006612;28;20071;-73
2024/03/24 02:14:34;;;;;;;1.95;0.68;;;5.00;99.90;;;;;;5006374;28;20514;-74
2024/03/24 02:17:01;;;;;;;2.72;0.63;;;4.90;99.90;;;;;;5005701;28;20030;-73
2024/03/24 02:19:27;;;;;;;1.08;0.32;;;4.90;99.90;;;;;;5006558;28;20034;-73
2024/03/24 02:21:52;;;;;;;0.77;0.50;;;4.90;99.90;;;;;;5006476;28;20030;-73
2024/03/24 02:24:18;;;;;;;3.75;0.35;;;4.90;99.90;;;;;;4991542;28;20048;-73
2024/03/24 02:26:44;;;;;;;0.98;0.47;;;4.90;99.90;;;;;;4989727;28;20117;-73
2024/03/24 02:29:12;;;;;;;1.08;0.57;;;4.90;99.90;;;;;;4991527;28;20026;-72
2024/03/24 02:31:40;;;;;;;1.58;0.80;;;4.90;99.90;;;;;;5002552;28;20114;-73
2024/03/24 02:34:05;;;;;;;0.65;0.43;;;4.90;99.90;;;;;;5002291;28;20403;-73
2024/03/24 02:36:32;;;;;;;3.83;0.93;;;4.90;99.90;;;;;;4990761;28;20030;-72
2024/03/24 02:38:58;;;;;;;1.17;0.70;;;4.90;99.90;;;;;;4991027;28;20144;-72
2024/03/24 02:41:24;;;;;;;1.48;1.30;;;5.00;99.90;;;;;;4990914;28;20113;-73
2024/03/24 02:43:50;;;;;;;3.53;0.60;;;5.00;99.90;;;;;;5006346;28;20399;-73
2024/03/24 02:46:16;;;;;;;0.82;0.52;;;5.00;99.90;;;;;;5005399;28;20096;-74
2024/03/24 02:48:42;;;;;;;1.70;0.73;;;4.90;99.90;;;;;;4991730;28;20034;-74
2024/03/24 02:51:08;;;;;;;0.98;0.70;;;5.00;99.90;;;;;;4991201;28;20629;-73
2024/03/24 02:53:34;;;;;;;1.40;0.93;;;5.00;99.90;;;;;;4991156;28;20061;-73
2024/03/24 02:56:00;;;;;;;1.30;0.70;;;5.00;99.90;;;;;;5005164;28;20109;-73
2024/03/24 02:58:26;;;;;;;1.15;0.80;;;5.00;99.90;;;;;;4991463;28;20113;-73
2024/03/24 03:00:51;;;;;;;1.15;0.55;;;5.00;99.90;;;;;;4994107;28;20106;-74
2024/03/24 03:03:17;;;;;;;1.02;0.70;;;5.00;99.90;;;;;;5010404;28;20550;-73
2024/03/24 03:05:45;;;;;;;9.13;0.75;;;5.10;99.90;;;;;;4994088;28;20026;-73
2024/03/24 03:08:11;;;;;;;1.42;0.80;;;5.10;99.90;;;;;;4993725;28;20054;-73
2024/03/24 03:10:38;;;;;;;0.55;0.45;;;5.10;99.90;;;;;;4993995;28;20100;-73
2024/03/24 03:13:04;;;;;;;0.73;0.60;;;5.20;99.90;;;;;;4994607;28;20030;-73
2024/03/24 03:15:31;;;;;;;1.30;0.90;;;5.20;99.90;;;;;;4993477;28;20027;-73
2024/03/24 03:17:57;;;;;;;2.60;1.00;;;5.30;99.90;;;;;;5009528;28;20037;-73
2024/03/24 03:20:24;;;;;;;1.45;0.88;;;5.30;99.90;;;;;;5009062;28;20033;-72
2024/03/24 03:22:49;;;;;;;9.07;0.88;;;5.30;99.90;;;;;;4994189;28;20109;-73
2024/03/24 03:25:15;;;;;;;3.28;0.63;;;5.30;99.90;;;;;;4993104;28;20132;-73
2024/03/24 03:27:42;;;;;;;0.30;0.30;;;5.30;99.90;;;;;;4994795;28;20041;-72
2024/03/24 03:30:08;;;;;;;0.57;0.30;;;5.30;99.90;;;;;;5009291;28;20056;-73
2024/03/24 03:32:35;;;;;;;0.68;0.50;;;5.30;99.90;;;;;;4994041;28;20073;-73
2024/03/24 03:35:02;;;;;;;0.68;0.50;;;5.30;99.90;;;;;;4992492;28;20030;-73
2024/03/24 03:37:27;;;;;;;0.43;0.32;;;5.30;99.90;;;;;;5008553;28;20114;-73
2024/03/24 03:39:53;;;;;;;1.00;0.55;;;5.40;99.90;;;;;;4994313;28;20177;-72
2024/03/24 03:42:19;;;;;;;3.13;0.50;;;5.30;99.90;;;;;;4993895;28;20041;-73
2024/03/24 03:44:49;;;;;;;1.15;0.50;;;5.30;99.90;;;;;;4993654;28;20114;-72
2024/03/24 03:47:17;;;;;;;6.40;0.52;;;5.30;99.90;;;;;;5007159;28;20037;-72
2024/03/24 03:49:50;;;;;;;0.45;0.40;;;5.30;99.90;;;;;;4993747;28;20033;-72
2024/03/24 03:52:25;;;;;;;0.20;0.20;;;5.30;99.90;;;;;;5007563;28;20093;-72
2024/03/24 03:54:53;;;;;;;0.32;0.32;;;5.40;99.90;;;;;;5007884;28;20121;-71
2024/03/24 03:57:19;;;;;;;0.32;0.30;;;5.30;99.90;;;;;;4992546;28;20049;-72
2024/03/24 03:59:45;;;;;;;0.52;0.40;;;5.30;99.90;;;;;;4993574;28;20036;-72
2024/03/24 04:02:11;;;;;;;0.30;0.20;;;5.30;99.90;;;;;;4993949;28;20034;-72
2024/03/24 04:04:37;;;;;;;3.53;0.57;;;5.20;99.90;;;;;;5010143;28;20402;-71
2024/03/24 04:07:03;;;;;;;0.70;0.32;;;5.10;99.90;;;;;;4993223;28;20093;-71
2024/03/24 04:09:29;;;;;;;1.33;0.40;;;5.00;99.90;;;;;;4991652;28;20022;-72
2024/03/24 04:11:55;;;;;;;0.40;0.40;;;5.00;99.90;;;;;;4993275;28;20490;-72
2024/03/24 04:14:20;;;;;;;0.60;0.40;;;5.00;99.90;;;;;;4993141;28;20034;-72
2024/03/24 04:16:46;;;;;;;1.30;0.95;;;5.00;99.90;;;;;;4992863;28;20803;-71
2024/03/24 04:19:12;;;;;;;2.55;0.40;;;5.00;99.90;;;;;;4993316;28;20038;-72
2024/03/24 04:21:37;;;;;;;0.77;0.47;;;5.10;99.90;;;;;;4992706;28;20126;-72
2024/03/24 04:24:04;;;;;;;1.17;0.30;;;5.10;99.90;;;;;;4993091;28;20096;-72
2024/03/24 04:26:29;;;;;;;0.60;0.50;;;5.10;99.90;;;;;;5007356;28;20049;-72
2024/03/24 04:28:55;;;;;;;0.75;0.50;;;5.10;99.90;;;;;;4993291;28;20485;-72
2024/03/24 04:31:21;;;;;;;0.55;0.45;;;5.10;99.90;;;;;;4992488;28;20118;-72
2024/03/24 04:33:47;;;;;;;0.75;0.50;;;5.20;99.90;;;;;;4993872;28;20089;-72
2024/03/24 04:36:13;;;;;;;0.40;0.40;;;5.20;99.90;;;;;;4991985;28;20136;-72
2024/03/24 04:38:40;;;;;;;0.77;0.68;;;5.10;99.90;;;;;;4991880;28;20050;-72
2024/03/24 04:41:08;;;;;;;1.50;0.77;;;5.10;99.90;;;;;;5007359;28;20118;-72
2024/03/24 04:43:33;;;;;;;1.08;0.65;;;5.20;99.90;;;;;;4992389;28;20062;-73
2024/03/24 04:45:59;;;;;;;0.40;0.40;;;5.20;99.90;;;;;;4992044;28;20466;-73
2024/03/24 04:48:25;;;;;;;0.85;0.50;;;5.10;99.90;;;;;;4993124;28;20034;-73
2024/03/24 04:50:50;;;;;;;1.05;0.43;;;5.10;99.90;;;;;;5007710;28;20486;-72
2024/03/24 04:53:16;;;;;;;0.60;0.60;;;5.10;99.90;;;;;;5007668;28;20034;-72
2024/03/24 04:55:42;;;;;;;7.82;0.95;;;5.10;99.90;;;;;;5006894;28;20042;-73
2024/03/24 04:58:09;;;;;;;7.88;0.65;;;5.10;99.90;;;;;;5007956;28;20030;-72
2024/03/24 05:00:35;;;;;;;0.65;0.40;;;5.10;99.90;;;;;;5006963;28;20640;-72
2024/03/24 05:03:01;;;;;;;0.73;0.55;;;5.10;99.90;;;;;;5007507;28;20034;-72
2024/03/24 05:05:26;;;;;;;3.63;1.10;;;5.10;99.90;;;;;;4992190;28;20034;-72
2024/03/24 05:07:52;;;;;;;0.43;0.43;;;5.00;99.90;;;;;;4992749;28;20072;-72
2024/03/24 05:10:18;;;;;;;0.40;0.35;;;5.00;99.90;;;;;;5006868;28;20030;-72
2024/03/24 05:12:44;;;;;;;1.33;0.82;;;5.00;99.90;;;;;;5007592;28;20022;-72
2024/03/24 05:15:10;;;;;;;1.77;0.50;;;5.10;99.90;;;;;;4991305;28;20395;-72
2024/03/24 05:17:39;;;;;;;0.93;0.50;;;5.10;99.90;;;;;;5007471;28;20117;-72
2024/03/24 05:20:09;;;;;;;0.60;0.50;;;5.00;99.90;;;;;;5007422;28;20026;-72
2024/03/24 05:22:36;;;;;;;0.22;0.22;;;5.00;99.90;;;;;;5005402;28;20022;-72
2024/03/24 05:25:03;;;;;;;0.40;0.40;;;5.10;99.90;;;;;;4990251;28;20557;-72
2024/03/24 05:27:29;;;;;;;0.80;0.55;;;5.00;99.90;;;;;;4991752;28;20124;-73
2024/03/24 05:29:55;;;;;;;0.68;0.47;;;5.00;99.90;;;;;;4992484;28;20054;-73
2024/03/24 05:32:21;;;;;;;2.45;0.80;;;5.00;99.90;;;;;;4992574;28;20037;-71
2024/03/24 05:34:47;;;;;;;1.65;0.77;;;5.00;99.90;;;;;;4993479;28;20117;-71
2024/03/24 05:37:13;;;;;;;0.70;0.40;;;5.00;99.90;;;;;;4992040;28;20030;-71
2024/03/24 05:39:40;;;;;;;0.43;0.40;;;5.00;99.90;;;;;;4990894;28;20030;-70
2024/03/24 05:42:06;;;;;;;7.65;0.60;;;5.00;99.90;;;;;;4992171;28;20046;-71
2024/03/24 05:44:32;;;;;;;0.57;0.47;;;5.00;99.90;;;;;;5006424;28;20031;-70
2024/03/24 05:46:58;;;;;;;0.47;0.38;;;4.90;99.90;;;;;;5006838;28;20040;-70
2024/03/24 05:49:24;;;;;;;2.50;1.00;;;5.00;99.90;;;;;;4990550;28;20035;-70
2024/03/24 05:51:50;;;;;;;1.83;0.93;;;5.00;99.90;;;;;;4993030;28;20033;-78
2024/03/24 05:54:16;;;;;;;4.00;1.95;;;5.00;99.90;;;;;;5007656;28;20534;-76
2024/03/24 05:56:42;;;;;;;6.32;0.70;;;5.00;99.90;;;;;;4991513;28;20034;-74
2024/03/24 05:59:08;;;;;;;0.82;0.60;;;5.00;99.90;;;;;;4992816;28;20030;-73
2024/03/24 06:01:33;;;;;;;2.67;0.90;;;5.10;99.90;;;;;;4990454;28;20038;-76
2024/03/24 06:03:59;;;;;;;1.00;0.65;;;5.00;99.90;;;;;;5006720;28;20141;-73
2024/03/24 06:06:25;;;;;;;1.38;0.82;;;5.10;99.90;;;;;;5006621;28;20026;-74
2024/03/24 06:08:51;;;;;;;0.40;0.40;;;5.10;99.90;;;;;;5007364;28;20117;-74
2024/03/24 06:11:16;;;;;;;4.05;1.67;;;5.10;99.90;;;;;;5006492;28;20454;-73
2024/03/24 06:13:42;;;;;;;1.20;0.90;;;5.10;99.90;;;;;;4991976;28;20023;-73
2024/03/24 06:16:10;;;;;;;2.75;0.70;;;5.10;99.90;;;;;;5006611;28;20034;-73
2024/03/24 06:18:36;;;;;;;1.73;0.80;;;5.10;99.90;;;;;;4991865;28;20039;-72
2024/03/24 06:21:02;;;;;;;2.17;0.70;;;5.20;99.90;;;;;;5006303;28;20030;-73
2024/03/24 06:23:28;;;;;;;1.70;0.80;;;5.30;99.90;;;;;;5006756;28;20035;-73
2024/03/24 06:25:53;;;;;;;3.67;1.20;;;5.30;99.90;;;;;;5006317;28;20494;-70
2024/03/24 06:28:19;;;;;;;6.07;2.67;;;5.30;99.90;;;;;;4993241;28;20474;-70
2024/03/24 06:30:45;;;;;;;4.47;1.88;;;5.30;99.90;;;;;;4991255;28;20193;-70
2024/03/24 06:33:10;;;;;;;1.02;0.65;;;5.40;99.90;;;;;;4993166;28;20058;-69
2024/03/24 06:35:36;;;;;;;5.07;0.90;;;5.50;99.90;;;;;;4994362;28;20042;-69
2024/03/24 06:38:02;;;;;;;2.42;0.93;;;5.60;99.90;;;;;;4995239;28;20034;-69
2024/03/24 06:40:28;;;;;;;6.88;1.17;;;5.60;99.90;;;;;;4995124;28;20415;-69
2024/03/24 06:42:59;;;;;;;3.38;0.93;;;5.60;99.90;;;;;;5010542;28;20014;-70
2024/03/24 06:45:35;;;;;;;1.98;0.88;;;5.60;99.90;;;;;;4994831;28;20045;-69
2024/03/24 06:48:04;;;;;;;9.35;3.65;;;5.60;99.90;;;;;;5010719;28;20093;-69
2024/03/24 06:50:31;;;;;;;1.23;0.88;;;5.60;99.90;;;;;;4994492;28;20468;-70
2024/03/24 06:52:58;;;;;;;1.50;1.17;;;5.70;99.90;;;;;;5009424;28;20173;-70
2024/03/24 06:55:25;;;;;;;2.80;1.52;;;5.70;99.90;;;;;;4992839;28;20165;-70
2024/03/24 06:57:51;;;;;;;2.28;1.40;;;5.70;99.90;;;;;;5009849;28;20033;-70
2024/03/24 07:00:18;;;;;;;0.85;0.60;;;5.60;99.90;;;;;;5009884;28;20030;-71
2024/03/24 07:02:48;;;;;;;0.70;0.40;;;5.60;99.90;;;;;;5007822;28;20494;-70
2024/03/24 07:05:17;;;;;;;1.65;0.93;;;5.60;99.90;;;;;;4971450;28;20498;-72
2024/03/24 07:07:43;;;;;;;2.25;1.20;;;5.60;99.90;;;;;;5009577;28;20034;-71
2024/03/24 07:10:09;;;;;;;1.20;0.82;;;5.60;99.90;;;;;;4994939;28;20034;-71
2024/03/24 07:12:35;;;;;;;0.80;0.60;;;5.60;99.90;;;;;;5009870;28;20026;-71
2024/03/24 07:15:02;;;;;;;2.53;0.80;;;5.70;99.90;;;;;;4993519;28;20029;-71
2024/03/24 07:17:28;;;;;;;1.63;0.93;;;5.70;99.90;;;;;;4994660;28;20029;-71
2024/03/24 07:19:53;;;;;;;0.90;0.50;;;5.80;99.90;;;;;;4994347;28;20022;-71
2024/03/24 07:22:19;;;;;;;0.65;0.45;;;5.80;99.90;;;;;;4995583;28;20030;-71
2024/03/24 07:24:45;;;;;;;1.23;0.75;;;5.90;99.90;;;;;;4994691;28;20537;-70
2024/03/24 07:27:12;;;;;;;0.63;0.63;;;5.90;99.90;;;;;;4994398;28;20076;-70
2024/03/24 07:29:39;;;;;;;1.10;0.60;;;5.90;99.90;;;;;;5008973;28;20035;-72
2024/03/24 07:32:05;;;;;;;4.13;1.05;;;5.90;99.90;;;;;;5009261;28;20034;-70
2024/03/24 07:34:31;;;;;;;1.67;1.15;;;5.90;99.90;;;;;;5008602;28;20042;-70
2024/03/24 07:36:57;;;;;;;1.67;1.08;;;5.90;99.90;;;;;;4993752;28;20036;-70
2024/03/24 07:39:25;;;;;;;5.25;1.10;;;5.90;99.90;;;;;;4993883;28;20022;-71
2024/03/24 07:41:51;;;;;;;2.33;0.80;;;5.90;99.90;;;;;;4992967;28;20092;-71
2024/03/24 07:44:20;;;;;;;1.85;1.08;;;6.00;99.90;;;;;;4990720;28;20033;-69
2024/03/24 07:46:46;;;;;;;4.57;1.30;;;6.00;99.90;;;;;;5008628;28;20062;-69
2024/03/24 07:49:12;;;;;;;1.08;0.70;;;5.90;99.90;;;;;;5008346;28;20663;-70
2024/03/24 07:51:38;;;;;;;1.17;0.80;;;6.10;99.90;;;;;;5009153;28;20432;-69
2024/03/24 07:54:05;;;;;;;1.30;0.68;;;6.20;99.90;;;;;;4993441;28;20033;-70
2024/03/24 07:56:32;;;;;;;5.32;1.10;;;6.20;99.90;;;;;;5008261;28;20061;-70
2024/03/24 07:58:58;;;;;;;1.05;0.73;;;6.30;99.90;;;;;;5008355;28;20041;-70
2024/03/24 08:01:24;;;;;;;2.67;1.13;;;6.50;99.90;;;;;;5008679;28;20049;-69
2024/03/24 08:03:50;;;;;;;1.88;1.23;;;6.60;99.90;;;;;;4991195;28;20030;-69
2024/03/24 08:06:17;;;;;;;1.20;0.73;;;6.60;99.90;;;;;;4991157;28;20126;-69
2024/03/24 08:08:43;;;;;;;4.93;1.13;;;6.70;99.90;;;;;;4992086;28;20029;-69
2024/03/24 08:11:09;;;;;;;3.63;0.75;;;6.70;99.90;;;;;;4992566;28;20085;-70
2024/03/24 08:13:34;;;;;;;3.55;1.42;;;6.70;99.90;;;;;;4993144;28;20026;-70
2024/03/24 08:16:01;;;;;;;2.30;0.80;;;6.60;99.90;;;;;;5007442;28;20037;-70
2024/03/24 08:18:27;;;;;;;2.22;0.70;;;6.70;99.90;;;;;;4993649;28;20121;-70
2024/03/24 08:20:53;;;;;;;2.10;0.80;;;6.70;99.90;;;;;;4993548;28;20022;-70
2024/03/24 08:23:20;;;;;;;3.65;0.80;;;6.70;99.90;;;;;;4993542;28;20034;-70
2024/03/24 08:25:47;;;;;;;2.50;1.15;;;6.70;99.90;;;;;;4992686;28;20023;-75
2024/03/24 08:28:13;;;;;;;4.30;1.05;;;6.70;99.90;;;;;;4992229;28;20394;-74
2024/03/24 08:30:40;;;;;;;2.83;1.02;;;6.70;99.90;;;;;;4991337;28;20448;-74
2024/03/24 08:33:09;;;;;;;0.20;0.20;;;6.70;99.90;;;;;;5008174;28;20030;-75
2024/03/24 08:35:35;;;;;;;5.68;0.90;;;6.80;99.90;;;;;;5005896;28;20026;-73
2024/03/24 08:38:01;;;;;;;1.70;0.45;;;6.80;99.90;;;;;;4993025;28;20073;-73
2024/03/24 08:40:27;;;;;;;1.67;0.60;;;6.80;99.90;;;;;;4991067;28;20031;-72
2024/03/24 08:42:53;;;;;;;1.00;0.65;;;6.80;99.90;;;;;;5007995;28;20029;-73
2024/03/24 08:45:18;;;;;;;1.75;0.77;;;6.80;99.90;;;;;;5006464;28;20034;-70
2024/03/24 08:47:44;;;;;;;5.38;1.17;;;6.80;99.90;;;;;;4993233;28;20112;-69
2024/03/24 08:50:11;;;;;;;3.00;1.25;;;6.70;99.90;;;;;;4992169;28;20026;-69
2024/03/24 08:52:36;;;;;;;6.75;1.15;;;6.80;99.90;;;;;;4992702;28;20681;-69
2024/03/24 08:55:03;;;;;;;2.25;0.95;;;6.80;99.90;;;;;;4991803;28;20034;-69
2024/03/24 08:57:28;;;;;;;2.78;1.08;;;6.90;99.90;;;;;;5007087;28;20033;-69
2024/03/24 08:59:56;;;;;;;2.38;0.88;;;6.90;99.90;;;;;;5007173;28;20030;-69
2024/03/24 09:02:22;;;;;;;20.15;1.70;;;7.00;99.90;;;;;;4992870;28;20033;-69
2024/03/24 09:04:53;;;;;;;3.25;0.88;;;6.90;99.90;;;;;;4990906;28;20541;-70
2024/03/24 09:07:22;;;;;;;4.75;1.48;;;6.80;99.90;;;;;;5006980;28;20027;-70
2024/03/24 09:09:49;;;;;;;2.70;1.08;;;6.80;99.90;;;;;;4993671;28;20422;-70
2024/03/24 09:12:17;;;;;;;1.50;0.90;;;6.90;99.90;;;;;;4994831;28;20027;-70
2024/03/24 09:14:43;;;;;;;8.63;0.95;;;6.90;99.90;;;;;;5008362;28;20513;-70
2024/03/24 09:17:10;;;;;;;2.47;1.25;;;6.90;99.90;;;;;;5008199;28;20030;-70
2024/03/24 09:19:36;;;;;;;7.35;1.50;;;6.80;99.90;;;;;;5007881;28;20034;-70
2024/03/24 09:22:03;;;;;;;3.88;1.67;;;6.80;99.90;;;;;;4992778;28;20514;-69
2024/03/24 09:24:29;;;;;;;2.85;1.52;;;6.80;99.90;;;;;;4991960;28;20566;-70
2024/03/24 09:26:57;;;;;;;2.60;1.27;;;6.90;99.90;;;;;;4991975;28;20137;-69
2024/03/24 09:29:23;;;;;;;1.98;1.25;;;6.90;99.90;;;;;;5006637;28;20022;-69
2024/03/24 09:31:49;;;;;;;7.40;2.15;;;7.00;99.90;;;;;;4992276;28;20481;-69
2024/03/24 09:34:15;;;;;;;1.90;1.33;;;7.00;99.90;;;;;;5006829;28;20071;-69
2024/03/24 09:36:41;;;;;;;1.58;1.05;;;7.00;99.90;;;;;;5006210;28;20044;-69
2024/03/24 09:39:06;;;;;;;4.88;1.20;;;7.10;99.90;;;;;;4992281;28;20471;-69
2024/03/24 09:41:43;;;;;;;2.38;1.20;;;7.10;99.90;;;;;;4992347;28;20026;-69
2024/03/24 09:44:11;;;;;;;1.38;0.80;;;7.20;99.90;;;;;;5006137;28;20545;-69
2024/03/24 09:46:43;;;;;;;2.55;1.42;;;7.20;99.90;;;;;;5006089;28;20042;-68
2024/03/24 09:49:15;;;;;;;1.42;1.27;;;7.10;99.90;;;;;;5006290;28;20030;-68
2024/03/24 09:51:42;;;;;;;4.32;0.77;;;7.10;99.90;;;;;;5003576;28;20061;-69
2024/03/24 09:54:13;;;;;;;2.92;1.42;;;7.10;99.90;;;;;;4987562;28;20031;-70
2024/03/24 09:56:40;;;;;;;4.88;0.73;;;7.10;99.90;;;;;;4982079;28;20056;-69
2024/03/24 09:59:07;;;;;;;5.43;1.33;;;7.10;99.90;;;;;;4991357;28;20031;-69
2024/03/24 10:01:38;;;;;;;3.70;1.27;;;7.10;99.90;;;;;;4988975;28;20034;-69
2024/03/24 10:04:07;;;;;;;2.22;0.98;;;7.20;99.90;;;;;;4993268;28;20062;-69
2024/03/24 10:06:34;;;;;;;2.30;0.88;;;7.20;99.90;;;;;;5005632;28;20030;-69
2024/03/24 10:09:02;;;;;;;4.88;0.90;;;7.20;99.90;;;;;;5009989;28;20022;-69
2024/03/24 10:11:35;;;;;;;7.80;1.00;;;7.20;99.90;;;;;;4995189;28;20030;-70
2024/03/24 10:14:03;;;;;;;1.98;1.20;;;7.20;99.90;;;;;;5007422;28;20041;-69
2024/03/24 10:16:30;;;;;;;1.17;0.98;;;7.20;99.90;;;;;;4994162;28;20069;-70
2024/03/24 10:18:56;;;;;;;7.43;1.20;;;7.00;99.90;;;;;;4996006;28;20037;-69
2024/03/24 10:21:23;;;;;;;1.45;0.93;;;7.00;99.90;;;;;;5009785;28;20038;-69
2024/03/24 10:23:48;;;;;;;3.85;1.00;;;7.00;99.90;;;;;;4994247;28;20023;-69
2024/03/24 10:26:19;;;;;;;4.32;1.27;;;7.00;99.90;;;;;;5009366;28;20034;-69
2024/03/24 10:28:48;;;;;;;5.25;1.95;;;7.10;99.90;;;;;;5003034;28;20023;-69
2024/03/24 10:31:13;;;;;;;2.55;1.30;;;7.20;99.90;;;;;;5010887;28;20038;-69
2024/03/24 10:33:40;;;;;;;4.05;1.20;;;7.30;99.90;;;;;;5011653;28;20030;-70
2024/03/24 10:36:07;;;;;;;3.60;1.70;;;7.40;99.90;;;;;;5009124;28;20502;-69
2024/03/24 10:38:36;;;;;;;9.00;1.10;;;7.60;99.90;;;;;;5009372;28;20035;-69
2024/03/24 10:41:04;;;;;;;6.68;1.60;;;7.60;99.90;;;;;;5009321;28;20034;-69
2024/03/24 10:43:31;;;;;;;5.93;1.27;;;7.70;99.90;;;;;;5006517;28;20034;-69
2024/03/24 10:45:58;;;;;;;6.70;1.20;;;7.60;99.90;;;;;;5008974;28;20034;-69
2024/03/24 10:48:33;;;;;;;2.33;1.10;;;7.60;99.90;;;;;;5010210;28;20022;-69
2024/03/24 10:51:07;;;;;;;2.58;0.60;;;7.60;99.90;;;;;;4995012;28;20023;-69
2024/03/24 10:53:33;;;;;;;4.25;1.40;;;7.60;99.90;;;;;;4994882;28;20348;-69
2024/03/24 10:56:04;;;;;;;17.48;2.30;;;7.70;99.90;;;;;;5009265;28;20066;-69
2024/03/24 10:58:32;;;;;;;4.97;1.10;;;7.70;99.90;;;;;;5009888;28;20022;-69
2024/03/24 11:00:58;;;;;;;1.65;0.93;;;7.80;99.90;;;;;;5009599;28;20019;-68
2024/03/24 11:03:24;;;;;;;3.75;0.80;;;7.90;99.90;;;;;;5011395;28;20352;-69
2024/03/24 11:05:52;;;;;;;2.28;1.00;;;8.10;99.90;;;;;;5008857;28;20030;-69
2024/03/24 11:08:20;;;;;;;0.95;0.45;;;8.20;99.90;;;;;;4993727;28;20485;-68
2024/03/24 11:10:49;;;;;;;1.45;0.90;;;8.30;99.90;;;;;;4992180;28;20473;-69
2024/03/24 11:13:21;;;;;;;2.17;0.82;;;8.60;99.90;;;;;;5009478;28;20394;-69
2024/03/24 11:15:48;;;;;;;1.35;0.73;;;8.90;99.90;;;;;;4986045;28;20035;-68
2024/03/24 11:18:21;;;;;;;1.50;1.08;;;8.90;99.90;;;;;;5009961;28;20026;-68
2024/03/24 11:20:52;;;;;;;5.38;0.70;;;8.80;99.90;;;;;;4992821;28;20034;-69
2024/03/24 11:23:23;;;;;;;1.10;0.73;;;8.50;99.90;;;;;;4994367;28;20022;-70
2024/03/24 11:25:51;;;;;;;5.15;1.55;;;8.50;99.90;;;;;;5008838;28;20065;-70
2024/03/24 11:28:39;;;;;;;1.80;0.57;;;8.50;99.90;;;;;;4992851;28;20447;-69
2024/03/24 11:31:23;;;;;;;7.47;1.00;;;8.40;99.90;;;;;;4993802;28;20065;-69
2024/03/24 11:34:11;;;;;;;4.35;1.23;;;8.40;99.90;;;;;;4995756;28;20173;-68
2024/03/24 11:36:42;;;;;;;4.40;1.17;;;8.50;99.90;;;;;;4993899;28;20459;-70
2024/03/24 11:39:12;;;;;;;2.33;0.67;;;8.90;99.90;;;;;;5009261;28;20018;-71
2024/03/24 11:42:09;;;;;;;3.83;0.95;;;9.00;99.90;;;;;;4993799;28;20494;-69
2024/03/24 11:44:35;;;;;;;1.15;0.57;;;9.40;99.90;;;;;;5001639;28;20132;-70
2024/03/24 11:47:06;;;;;;;6.43;0.77;;;9.90;99.90;;;;;;4993744;28;20523;-68
2024/03/24 11:49:37;;;;;;;0.50;0.40;;;10.10;99.90;;;;;;5008344;28;20038;-69
2024/03/24 11:52:05;;;;;;;0.90;0.40;;;10.20;99.90;;;;;;4993795;28;20371;-69
2024/03/24 11:54:32;;;;;;;2.33;0.85;;;10.20;99.90;;;;;;4992048;28;20113;-70
2024/03/24 11:56:58;;;;;;;1.85;0.52;;;10.20;99.90;;;;;;4993102;28;20030;-69
2024/03/24 11:59:24;;;;;;;1.10;0.63;;;10.20;99.90;;;;;;5008499;28;20026;-70
2024/03/24 12:01:50;;;;;;;2.05;0.60;;;10.00;99.90;;;;;;4994135;28;20030;-70
2024/03/24 12:04:19;;;;;;;1.10;0.40;;;10.20;99.90;;;;;;4994884;28;20038;-70
2024/03/24 12:06:45;;;;;;;2.53;0.90;;;10.90;99.90;;;;;;4993193;28;20018;-70
2024/03/24 12:09:14;;;;;;;1.02;0.50;;;10.80;99.90;;;;;;4993610;28;20037;-69
2024/03/24 12:11:41;;;;;;;0.70;0.40;;;10.90;99.90;;;;;;4993626;28;20026;-69
2024/03/24 12:14:09;;;;;;;0.50;0.43;;;10.40;99.90;;;;;;4994049;28;20027;-69
2024/03/24 12:16:35;;;;;;;2.15;0.60;;;9.70;99.90;;;;;;5007797;28;20045;-69
2024/03/24 12:19:01;;;;;;;2.65;0.40;;;9.50;99.90;;;;;;4993908;28;20227;-69
2024/03/24 12:21:30;;;;;;;0.95;0.73;;;9.50;99.90;;;;;;4992551;28;20034;-69
2024/03/24 12:23:56;;;;;;;0.52;0.43;;;9.60;99.90;;;;;;5004872;28;20058;-69
2024/03/24 12:26:23;;;;;;;1.25;0.50;;;9.90;99.90;;;;;;4992231;28;20034;-69
2024/03/24 12:28:53;;;;;;;0.10;0.10;;;10.10;99.90;;;;;;5008305;28;20021;-69
2024/03/24 12:31:20;;;;;;;0.70;0.28;;;9.80;99.90;;;;;;4992420;28;20036;-70
2024/03/24 12:33:49;;;;;;;6.55;0.90;;;10.70;99.90;;;;;;5008006;28;20034;-70
2024/03/24 12:36:16;;;;;;;0.73;0.47;;;11.00;99.90;;;;;;5001735;28;20040;-70
2024/03/24 12:38:45;;;;;;;1.00;0.63;;;10.40;99.90;;;;;;5014010;28;20038;-71
2024/03/24 12:41:22;;;;;;;0.77;0.60;;;10.10;99.90;;;;;;4989055;28;20392;-70
2024/03/24 12:43:52;;;;;;;0.93;0.28;;;10.00;99.90;;;;;;5005781;28;20057;-70
2024/03/24 12:46:29;;;;;;;1.15;0.70;;;9.90;99.90;;;;;;4988950;28;20130;-71
2024/03/24 12:48:55;;;;;;;1.08;0.55;;;10.50;99.90;;;;;;5001833;28;20046;-71
2024/03/24 12:51:21;;;;;;;0.63;0.40;;;11.90;99.30;;;;;;4989409;28;20029;-70
2024/03/24 12:53:54;;;;;;;2.38;0.65;;;11.50;97.20;;;;;;4986951;28;20449;-71